createdAt,value
2018-08-18T00:01:54.387Z,22.93
2018-08-18T00:05:58.873Z,22.89
2018-08-18T00:10:03.211Z,22.87
2018-08-18T00:14:07.483Z,22.86
2018-08-18T00:18:12.052Z,22.84
2018-08-18T00:22:16.150Z,22.81
2018-08-18T00:26:20.388Z,22.79
2018-08-18T00:30:28.521Z,22.76
2018-08-18T00:34:33.077Z,22.72
2018-08-18T00:38:37.406Z,22.69
2018-08-18T00:42:42.129Z,22.64
2018-08-18T00:46:46.386Z,22.61
2018-08-18T00:50:50.567Z,22.53
2018-08-18T00:54:55.229Z,22.46
2018-08-18T00:58:59.463Z,22.42
2018-08-18T01:03:03.678Z,22.37
2018-08-18T01:07:12.945Z,22.31
2018-08-18T01:11:17.143Z,22.22
2018-08-18T01:15:27.549Z,22.16
2018-08-18T01:19:31.565Z,22.13
2018-08-18T01:27:51.838Z,22.09
2018-08-18T01:31:55.426Z,22.06
2018-08-18T01:35:58.991Z,22.00
2018-08-18T01:40:02.520Z,21.92
2018-08-18T01:44:17.170Z,21.86
2018-08-18T01:48:20.782Z,21.81
2018-08-18T01:52:25.614Z,21.79
2018-08-18T02:05:26.325Z,21.68
2018-08-18T02:09:30.120Z,21.65
2018-08-18T02:13:34.719Z,21.64
2018-08-18T02:17:39.569Z,21.64
2018-08-18T02:21:43.614Z,21.61
2018-08-18T02:25:47.656Z,21.55
2018-08-18T02:30:03.548Z,21.47
2018-08-18T02:34:07.742Z,21.38
2018-08-18T02:38:16.792Z,21.33
2018-08-18T02:42:20.961Z,21.30
2018-08-18T02:46:31.485Z,21.27
2018-08-18T02:50:35.891Z,21.25
2018-08-18T02:54:41.385Z,21.19
2018-08-18T02:58:55.521Z,21.16
2018-08-18T03:02:59.844Z,21.15
2018-08-18T03:07:04.226Z,21.14
2018-08-18T03:11:08.528Z,21.14
2018-08-18T03:15:16.644Z,21.11
2018-08-18T03:19:21.917Z,21.09
2018-08-18T03:23:26.539Z,21.07
2018-08-18T03:27:30.932Z,21.01
2018-08-18T03:31:35.478Z,20.99
2018-08-18T03:35:40.427Z,20.96
2018-08-18T03:39:44.872Z,20.95
2018-08-18T03:43:49.520Z,20.93
2018-08-18T03:47:56.135Z,20.89
2018-08-18T03:52:00.563Z,20.81
2018-08-18T03:56:04.959Z,20.76
2018-08-18T04:00:09.430Z,20.74
2018-08-18T04:04:15.690Z,20.74
2018-08-18T04:08:19.945Z,20.71
2018-08-18T04:12:24.287Z,20.69
2018-08-18T04:16:29.386Z,20.69
2018-08-18T04:20:33.699Z,20.66
2018-08-18T04:24:42.842Z,20.64
2018-08-18T04:28:47.280Z,20.66
2018-08-18T04:32:55.395Z,20.64
2018-08-18T04:37:01.636Z,20.62
2018-08-18T04:41:05.796Z,20.62
2018-08-18T04:45:10.105Z,20.63
2018-08-18T05:04:17.913Z,20.75
2018-08-18T05:08:22.034Z,20.76
2018-08-18T05:12:27.504Z,20.81
2018-08-18T05:16:32.572Z,20.89
2018-08-18T05:20:36.963Z,20.95
2018-08-18T05:24:42.655Z,21.06
2018-08-18T05:28:47.476Z,21.13
2018-08-18T05:32:52.329Z,21.21
2018-08-18T05:36:57.103Z,21.28
2018-08-18T05:41:01.631Z,21.39
2018-08-18T05:45:20.993Z,21.52
2018-08-18T05:49:26.258Z,21.67
2018-08-18T05:53:33.780Z,21.81
2018-08-18T05:57:39.282Z,21.95
2018-08-18T06:01:43.592Z,22.13
2018-08-18T06:05:48.431Z,22.29
2018-08-18T06:09:53.068Z,22.49
2018-08-18T06:13:58.102Z,22.67
2018-08-18T06:22:25.295Z,22.89
2018-08-18T06:26:33.153Z,23.02
2018-08-18T06:30:38.583Z,23.15
2018-08-18T06:34:44.275Z,23.24
2018-08-18T06:38:49.342Z,23.35
2018-08-18T06:42:59.566Z,23.49
2018-08-18T06:47:17.135Z,23.62
2018-08-18T06:51:22.657Z,23.69
2018-08-18T06:55:31.631Z,23.81
2018-08-18T06:59:38.966Z,23.95
2018-08-18T07:03:48.334Z,24.08
2018-08-18T07:07:55.458Z,24.13
2018-08-18T07:12:01.910Z,24.28
2018-08-18T07:16:11.326Z,24.44
2018-08-18T07:24:34.971Z,24.74
2018-08-18T07:28:38.456Z,24.92
2018-08-18T07:32:41.978Z,25.08
2018-08-18T07:36:45.483Z,25.17
2018-08-18T07:40:51.374Z,25.36
2018-08-18T07:44:55.358Z,25.53
2018-08-18T07:48:58.895Z,25.67
2018-08-18T07:53:02.894Z,25.85
2018-08-18T07:57:06.421Z,25.98
2018-08-18T08:01:09.936Z,26.10
2018-08-18T08:05:13.412Z,26.30
2018-08-18T08:09:16.961Z,26.52
2018-08-18T08:13:20.470Z,26.72
2018-08-18T08:17:25.015Z,26.84
2018-08-18T08:21:28.517Z,27.02
2018-08-18T08:25:32.019Z,27.19
2018-08-18T08:29:39.443Z,27.29
2018-08-18T08:33:42.978Z,27.41
2018-08-18T08:37:47.126Z,27.48
2018-08-18T08:41:50.683Z,27.62
2018-08-18T08:45:54.262Z,27.80
2018-08-18T08:49:57.757Z,27.96
2018-08-18T08:54:01.254Z,28.11
2018-08-18T08:58:04.782Z,28.25
2018-08-18T09:02:09.934Z,28.33
2018-08-18T09:06:13.525Z,28.43
2018-08-18T09:10:17.504Z,28.51
2018-08-18T09:14:21.512Z,28.60
2018-08-18T09:18:25.031Z,28.60
2018-08-18T09:22:29.307Z,28.69
2018-08-18T09:26:37.251Z,28.77
2018-08-18T09:30:40.775Z,28.80
2018-08-18T09:34:49.434Z,28.84
2018-08-18T09:38:52.947Z,29.00
2018-08-18T09:42:56.490Z,29.06
2018-08-18T09:47:00.112Z,29.14
2018-08-18T09:51:03.604Z,29.32
2018-08-18T09:55:07.122Z,29.52
2018-08-18T09:59:10.644Z,29.65
2018-08-18T10:03:14.138Z,29.80
2018-08-18T10:07:17.670Z,29.94
2018-08-18T10:11:21.187Z,30.03
2018-08-18T10:15:25.263Z,30.11
2018-08-18T10:19:30.136Z,30.21
2018-08-18T10:23:33.943Z,30.35
2018-08-18T10:27:37.808Z,30.49
2018-08-18T10:31:58.636Z,30.50
2018-08-18T10:36:02.516Z,30.55
2018-08-18T10:40:11.143Z,30.48
2018-08-18T10:44:15.158Z,30.46
2018-08-18T10:48:18.721Z,30.47
2018-08-18T10:52:34.500Z,30.67
2018-08-18T10:56:38.223Z,30.84
2018-08-18T11:00:41.804Z,30.97
2018-08-18T11:04:45.483Z,31.06
2018-08-18T11:08:49.024Z,31.17
2018-08-18T11:12:52.583Z,31.24
2018-08-18T11:16:56.118Z,31.30
2018-08-18T11:20:59.702Z,31.46
2018-08-18T11:25:03.309Z,31.65
2018-08-18T11:29:14.756Z,31.80
2018-08-18T11:33:36.721Z,31.88
2018-08-18T11:37:52.875Z,31.89
2018-08-18T11:41:56.991Z,31.97
2018-08-18T11:46:00.540Z,32.05
2018-08-18T11:50:04.138Z,32.11
2018-08-18T11:54:07.658Z,32.19
2018-08-18T11:58:12.640Z,32.30
2018-08-18T12:02:16.378Z,32.37
2018-08-18T12:06:20.047Z,32.37
2018-08-18T12:10:23.590Z,32.39
2018-08-18T12:14:27.131Z,32.39
2018-08-18T12:18:31.767Z,32.44
2018-08-18T12:22:35.272Z,32.46
2018-08-18T12:26:39.060Z,32.45
2018-08-18T12:30:42.642Z,32.40
2018-08-18T12:34:46.272Z,32.45
2018-08-18T12:38:51.818Z,32.50
2018-08-18T12:42:55.361Z,32.58
2018-08-18T12:47:00.209Z,32.56
2018-08-18T12:51:04.522Z,32.60
2018-08-18T12:55:08.036Z,32.63
2018-08-18T12:59:11.506Z,32.67
2018-08-18T13:03:15.039Z,32.67
2018-08-18T13:07:18.476Z,32.69
2018-08-18T13:11:22.058Z,32.62
2018-08-18T13:15:25.610Z,32.63
2018-08-18T13:19:31.489Z,32.69
2018-08-18T13:23:34.945Z,32.63
2018-08-18T13:27:48.802Z,32.69
2018-08-18T13:31:52.365Z,32.67
2018-08-18T13:35:55.852Z,32.64
2018-08-18T13:39:59.377Z,32.59
2018-08-18T13:44:02.877Z,32.59
2018-08-18T13:48:07.991Z,32.59
2018-08-18T13:52:11.493Z,32.56
2018-08-18T13:56:14.982Z,32.58
2018-08-18T14:00:18.563Z,32.57
2018-08-18T14:04:27.362Z,32.57
2018-08-18T14:08:30.789Z,32.63
2018-08-18T14:12:34.301Z,32.72
2018-08-18T14:16:37.817Z,32.75
2018-08-18T14:20:59.102Z,32.76
2018-08-18T14:25:02.576Z,32.72
2018-08-18T14:29:06.081Z,32.65
2018-08-18T14:33:09.695Z,32.62
2018-08-18T14:37:13.846Z,32.60
2018-08-18T14:41:28.472Z,32.62
2018-08-18T14:45:32.016Z,32.67
2018-08-18T14:49:35.556Z,32.67
2018-08-18T14:53:41.158Z,32.60
2018-08-18T14:57:49.799Z,32.55
2018-08-18T15:01:53.378Z,32.51
2018-08-18T15:05:56.958Z,32.47
2018-08-18T15:10:00.634Z,32.47
2018-08-18T15:14:04.148Z,32.46
2018-08-18T15:18:12.929Z,32.41
2018-08-18T15:22:16.516Z,32.37
2018-08-18T15:26:20.106Z,32.34
2018-08-18T15:30:23.779Z,32.31
2018-08-18T15:34:28.057Z,32.27
2018-08-18T15:38:43.650Z,32.23
2018-08-18T15:42:47.385Z,32.18
2018-08-18T15:46:50.944Z,32.13
2018-08-18T15:50:54.472Z,32.09
2018-08-18T15:54:57.954Z,32.04
2018-08-18T15:59:02.267Z,32.02
2018-08-18T16:03:06.018Z,31.98
2018-08-18T16:07:09.590Z,31.96
2018-08-18T16:11:13.550Z,31.93
2018-08-18T16:15:17.953Z,31.88
2018-08-18T16:19:21.418Z,31.85
2018-08-18T16:23:25.625Z,31.79
2018-08-18T16:27:29.085Z,31.74
2018-08-18T16:31:32.488Z,31.68
2018-08-18T16:35:37.273Z,31.63
2018-08-18T16:39:41.592Z,31.61
2018-08-18T16:43:45.363Z,31.57
2018-08-18T16:47:53.238Z,31.54
2018-08-18T16:51:59.321Z,31.48
2018-08-18T16:56:02.854Z,31.44
2018-08-18T17:00:06.478Z,31.39
2018-08-18T17:04:12.155Z,31.35
2018-08-18T17:08:15.723Z,31.33
2018-08-18T17:12:21.436Z,31.31
2018-08-18T17:16:25.128Z,31.26
2018-08-18T17:20:28.940Z,31.21
2018-08-18T17:24:32.607Z,31.14
2018-08-18T17:28:36.256Z,31.07
2018-08-18T17:32:39.898Z,31.04
2018-08-18T17:36:43.357Z,31.00
2018-08-18T17:40:46.910Z,30.95
2018-08-18T17:44:50.299Z,30.91
2018-08-18T17:48:53.794Z,30.82
2018-08-18T17:52:57.205Z,30.76
2018-08-18T17:57:00.632Z,30.69
2018-08-18T18:01:06.186Z,30.61
2018-08-18T18:05:10.516Z,30.54
2018-08-18T18:09:14.206Z,30.45
2018-08-18T18:13:23.157Z,30.36
2018-08-18T18:17:27.210Z,30.27
2018-08-18T18:21:30.956Z,30.15
2018-08-18T18:25:35.614Z,30.07
2018-08-18T18:29:39.353Z,29.97
2018-08-18T18:33:45.111Z,29.87
2018-08-18T18:37:48.854Z,29.79
2018-08-18T18:41:52.660Z,29.68
2018-08-18T18:45:56.520Z,29.60
2018-08-18T18:50:00.394Z,29.48
2018-08-18T18:54:04.304Z,29.40
2018-08-18T18:58:12.493Z,29.35
2018-08-18T19:02:16.509Z,29.28
2018-08-18T19:06:20.404Z,29.21
2018-08-18T19:10:25.765Z,29.10
2018-08-18T19:14:29.627Z,28.98
2018-08-18T19:18:33.695Z,28.83
2018-08-18T19:22:37.672Z,28.69
2018-08-18T19:26:47.724Z,28.60
2018-08-18T19:30:51.847Z,28.49
2018-08-18T19:34:56.611Z,28.41
2018-08-18T19:39:01.672Z,28.35
2018-08-18T19:43:10.977Z,28.30
2018-08-18T19:47:35.604Z,28.25
2018-08-18T19:51:39.721Z,28.19
2018-08-18T19:55:45.195Z,28.14
2018-08-18T19:59:49.528Z,28.07
2018-08-18T20:03:54.153Z,28.00
2018-08-18T20:07:58.285Z,27.91
2018-08-18T20:12:02.361Z,27.79
2018-08-18T20:16:06.781Z,27.71
2018-08-18T20:20:10.934Z,27.61
2018-08-18T20:24:16.068Z,27.55
2018-08-18T20:28:20.128Z,27.46
2018-08-18T20:32:24.354Z,27.37
2018-08-18T20:36:28.785Z,27.30
2018-08-18T20:40:33.005Z,27.22
2018-08-18T20:44:37.091Z,27.16
2018-08-18T20:48:41.295Z,27.10
2018-08-18T20:52:45.535Z,27.04
2018-08-18T20:56:49.737Z,26.96
2018-08-18T21:00:53.857Z,26.75
2018-08-18T21:05:00.449Z,26.62
2018-08-18T21:09:18.155Z,26.56
2018-08-18T21:13:22.474Z,26.56
2018-08-18T21:17:26.461Z,26.54
2018-08-18T21:21:35.036Z,26.50
2018-08-18T21:25:48.290Z,26.44
2018-08-18T21:29:53.880Z,26.37
2018-08-18T21:33:59.668Z,26.24
2018-08-18T21:38:06.009Z,26.12
2018-08-18T21:42:10.192Z,26.11
2018-08-18T21:46:17.277Z,26.11
2018-08-18T21:50:21.571Z,26.10
2018-08-18T21:54:25.860Z,26.07
2018-08-18T21:58:29.970Z,25.97
2018-08-18T22:02:42.454Z,25.86
2018-08-18T22:06:46.617Z,25.79
2018-08-18T22:10:54.878Z,25.74
2018-08-18T22:14:59.545Z,25.64
2018-08-18T22:19:04.335Z,25.52
2018-08-18T22:23:09.114Z,25.43
2018-08-18T22:27:17.976Z,25.35
2018-08-18T22:31:23.153Z,25.29
2018-08-18T22:35:27.450Z,25.27
2018-08-18T22:39:31.636Z,25.25
2018-08-18T22:43:36.595Z,25.24
2018-08-18T22:47:42.464Z,25.21
2018-08-18T22:51:46.785Z,25.02
2018-08-18T22:55:50.941Z,24.97
2018-08-18T22:59:55.196Z,24.96
2018-08-18T23:03:59.380Z,24.93
2018-08-18T23:08:04.447Z,24.92
2018-08-18T23:12:08.841Z,24.87
2018-08-18T23:16:13.192Z,24.83
2018-08-18T23:20:17.274Z,24.78
2018-08-18T23:24:31.578Z,24.75
2018-08-18T23:28:35.705Z,24.68
2018-08-18T23:32:40.274Z,24.60
2018-08-18T23:36:44.677Z,24.54
2018-08-18T23:40:50.745Z,24.49
2018-08-18T23:44:55.405Z,24.47
2018-08-18T23:49:00.537Z,24.45
2018-08-18T23:53:07.061Z,24.43
2018-08-18T23:57:11.365Z,24.44
